createdAt,value
2019-03-22T00:00:25.504Z,48.97
2019-03-22T00:02:54.229Z,53.03
2019-03-22T00:05:23.048Z,52.00
2019-03-22T00:07:51.965Z,49.77
2019-03-22T00:10:20.924Z,53.70
2019-03-22T00:12:49.780Z,55.17
2019-03-22T00:15:18.603Z,51.73
2019-03-22T00:17:47.513Z,53.67
2019-03-22T00:20:16.246Z,63.47
2019-03-22T00:22:45.627Z,58.30
2019-03-22T00:25:15.775Z,60.00
2019-03-22T00:27:44.539Z,57.90
2019-03-22T00:30:14.105Z,57.50
2019-03-22T00:32:43.004Z,60.30
2019-03-22T00:35:12.143Z,64.00
2019-03-22T00:37:41.465Z,63.57
2019-03-22T00:40:11.457Z,61.77
2019-03-22T00:42:40.159Z,64.37
2019-03-22T00:45:10.690Z,65.03
2019-03-22T00:47:39.541Z,62.97
2019-03-22T00:50:11.290Z,63.90
2019-03-22T00:52:40.095Z,63.97
2019-03-22T00:55:10.330Z,66.60
2019-03-22T00:57:39.683Z,68.27
2019-03-22T01:00:11.086Z,67.80
2019-03-22T01:02:39.891Z,66.90
2019-03-22T01:05:09.294Z,64.77
2019-03-22T01:07:38.235Z,68.13
2019-03-22T01:10:09.539Z,71.37
2019-03-22T01:12:38.432Z,67.23
2019-03-22T01:15:09.491Z,67.30
2019-03-22T01:17:38.346Z,67.37
2019-03-22T01:20:08.972Z,64.00
2019-03-22T01:22:38.087Z,64.90
2019-03-22T01:25:07.747Z,67.53
2019-03-22T01:27:40.749Z,75.10
2019-03-22T01:30:10.287Z,82.83
2019-03-22T01:32:38.988Z,83.20
2019-03-22T01:35:08.972Z,83.33
2019-03-22T01:37:38.069Z,92.00
2019-03-22T01:40:09.433Z,85.00
2019-03-22T01:42:38.266Z,86.57
2019-03-22T01:45:10.022Z,85.63
2019-03-22T01:47:39.143Z,86.50
2019-03-22T01:50:11.248Z,84.70
2019-03-22T01:52:40.384Z,83.90
2019-03-22T01:55:10.423Z,82.97
2019-03-22T01:57:39.533Z,88.50
2019-03-22T02:00:11.467Z,82.27
2019-03-22T02:02:40.198Z,81.57
2019-03-22T02:05:09.485Z,82.40
2019-03-22T02:07:38.233Z,81.07
2019-03-22T02:10:09.608Z,84.17
2019-03-22T02:12:38.504Z,75.87
2019-03-22T02:15:09.837Z,77.00
2019-03-22T02:17:38.629Z,74.53
2019-03-22T02:20:08.994Z,70.47
2019-03-22T02:22:38.355Z,60.40
2019-03-22T02:25:07.634Z,64.63
2019-03-22T02:27:36.901Z,68.97
2019-03-22T02:30:09.172Z,72.30
2019-03-22T02:32:37.948Z,71.73
2019-03-22T02:35:08.224Z,71.50
2019-03-22T02:37:37.337Z,68.07
2019-03-22T02:40:08.799Z,70.77
2019-03-22T02:42:39.084Z,76.17
2019-03-22T02:45:10.765Z,74.80
2019-03-22T02:47:39.556Z,72.13
2019-03-22T02:50:17.785Z,70.20
2019-03-22T02:52:41.651Z,65.33
2019-03-22T02:55:11.779Z,66.10
2019-03-22T02:57:40.850Z,68.00
2019-03-22T03:00:12.482Z,65.90
2019-03-22T03:02:41.207Z,70.40
2019-03-22T03:05:10.579Z,76.10
2019-03-22T03:07:40.298Z,68.83
2019-03-22T03:10:12.440Z,75.20
2019-03-22T03:12:41.343Z,74.90
2019-03-22T03:15:13.216Z,75.20
2019-03-22T03:17:42.068Z,74.57
2019-03-22T03:20:13.731Z,75.27
2019-03-22T03:22:42.476Z,76.40
2019-03-22T03:25:11.670Z,79.63
2019-03-22T03:27:40.432Z,80.60
2019-03-22T03:30:12.185Z,78.57
2019-03-22T03:32:41.018Z,82.23
2019-03-22T03:35:10.352Z,88.70
2019-03-22T03:37:46.839Z,80.77
2019-03-22T03:40:18.656Z,87.27
2019-03-22T03:42:47.769Z,84.90
2019-03-22T03:45:19.441Z,81.10
2019-03-22T03:47:48.331Z,86.17
2019-03-22T03:50:17.067Z,80.60
2019-03-22T03:52:45.904Z,80.63
2019-03-22T03:55:17.349Z,80.80
2019-03-22T03:57:46.140Z,76.20
2019-03-22T04:00:15.054Z,77.77
2019-03-22T04:02:43.833Z,68.10
2019-03-22T04:05:14.751Z,66.40
2019-03-22T04:07:44.069Z,67.50
2019-03-22T04:10:12.930Z,66.40
2019-03-22T04:12:41.687Z,70.13
2019-03-22T04:15:10.832Z,69.27
2019-03-22T04:17:39.631Z,69.57
2019-03-22T04:20:08.962Z,69.90
2019-03-22T04:22:37.805Z,72.00
2019-03-22T04:25:08.071Z,74.97
2019-03-22T04:27:36.871Z,75.23
2019-03-22T04:30:07.603Z,76.13
2019-03-22T04:32:36.485Z,75.60
2019-03-22T04:35:07.231Z,75.07
2019-03-22T04:37:35.965Z,72.97
2019-03-22T04:40:07.514Z,73.10
2019-03-22T04:42:36.286Z,71.03
2019-03-22T04:45:06.573Z,73.27
2019-03-22T04:47:36.222Z,72.40
2019-03-22T04:50:06.406Z,69.67
2019-03-22T04:52:35.557Z,70.13
2019-03-22T04:55:05.627Z,68.23
2019-03-22T04:57:35.554Z,70.93
2019-03-22T05:00:06.653Z,70.30
2019-03-22T05:02:35.716Z,67.10
2019-03-22T05:05:06.189Z,75.90
2019-03-22T05:07:35.559Z,70.87
2019-03-22T05:10:06.687Z,66.87
2019-03-22T05:21:31.482Z,62.23
2019-03-22T05:27:30.092Z,66.30
2019-03-22T05:47:03.499Z,67.50
2019-03-22T05:50:05.162Z,72.70
2019-03-22T05:55:36.762Z,67.87
2019-03-22T05:58:05.693Z,67.07
2019-03-22T06:00:34.512Z,72.87
2019-03-22T06:03:03.241Z,78.03
2019-03-22T06:05:32.028Z,85.47
2019-03-22T06:08:00.799Z,88.07
2019-03-22T06:10:29.448Z,92.23
2019-03-22T06:12:58.125Z,93.13
2019-03-22T06:15:26.985Z,85.20
2019-03-22T06:17:55.639Z,76.63
2019-03-22T06:20:24.660Z,66.10
2019-03-22T06:22:53.451Z,57.07
2019-03-22T06:25:22.196Z,56.43
2019-03-22T06:27:50.956Z,54.10
2019-03-22T06:30:19.739Z,49.93
2019-03-22T06:32:48.409Z,47.50
2019-03-22T06:35:17.116Z,47.63
2019-03-22T06:37:45.805Z,50.07
2019-03-22T06:40:14.547Z,49.50
2019-03-22T06:42:44.696Z,47.33
2019-03-22T06:45:14.132Z,47.87
2019-03-22T06:47:42.967Z,47.97
2019-03-22T06:50:11.802Z,42.90
2019-03-22T06:52:40.462Z,40.47
2019-03-22T06:55:09.448Z,37.77
2019-03-22T06:57:38.038Z,39.00
2019-03-22T07:00:10.061Z,43.77
2019-03-22T07:02:38.806Z,41.00
2019-03-22T07:05:08.076Z,39.17
2019-03-22T07:07:36.785Z,40.43
2019-03-22T07:10:07.272Z,39.40
2019-03-22T07:12:35.896Z,39.73
2019-03-22T07:15:06.679Z,39.50
2019-03-22T07:17:35.400Z,35.57
2019-03-22T07:20:05.318Z,37.70
2019-03-22T07:22:34.448Z,36.67
2019-03-22T07:25:03.844Z,34.80
2019-03-22T07:27:32.527Z,34.10
2019-03-22T07:30:01.320Z,34.10
2019-03-22T07:32:30.104Z,33.37
2019-03-22T07:34:58.871Z,29.80
2019-03-22T07:37:27.553Z,31.57
2019-03-22T07:39:56.319Z,30.03
2019-03-22T07:42:25.051Z,31.33
2019-03-22T07:44:53.834Z,33.33
2019-03-22T07:47:22.712Z,33.17
2019-03-22T07:49:51.455Z,28.80
2019-03-22T07:52:23.380Z,31.27
2019-03-22T07:54:52.059Z,30.40
2019-03-22T07:57:20.848Z,30.50
2019-03-22T07:59:49.765Z,31.27
2019-03-22T08:02:18.419Z,30.43
2019-03-22T08:04:47.073Z,29.57
2019-03-22T08:07:15.873Z,28.20
2019-03-22T08:09:44.624Z,28.90
2019-03-22T08:12:13.481Z,27.10
2019-03-22T08:14:42.258Z,26.70
2019-03-22T08:17:11.152Z,25.83
2019-03-22T08:19:40.018Z,24.47
2019-03-22T08:22:08.849Z,26.10
2019-03-22T08:24:37.696Z,24.70
2019-03-22T08:27:06.430Z,24.97
2019-03-22T08:29:35.242Z,24.80
2019-03-22T08:32:04.018Z,23.70
2019-03-22T08:34:32.656Z,23.73
2019-03-22T08:37:01.542Z,22.50
2019-03-22T08:39:30.148Z,21.97
2019-03-22T08:41:59.030Z,23.77
2019-03-22T08:44:27.875Z,21.90
2019-03-22T08:46:56.503Z,23.10
2019-03-22T08:49:25.334Z,20.83
2019-03-22T08:51:54.239Z,22.93
2019-03-22T08:54:22.942Z,20.90
2019-03-22T08:56:51.790Z,22.57
2019-03-22T08:59:20.517Z,20.00
2019-03-22T09:01:49.326Z,21.77
2019-03-22T09:04:18.191Z,20.67
2019-03-22T09:06:47.000Z,21.07
2019-03-22T09:09:15.899Z,20.33
2019-03-22T09:11:44.706Z,20.30
2019-03-22T09:14:13.389Z,21.00
2019-03-22T09:16:42.115Z,21.10
2019-03-22T09:19:10.991Z,20.43
2019-03-22T09:21:39.822Z,22.83
2019-03-22T09:24:08.532Z,21.07
2019-03-22T09:26:47.047Z,21.80
2019-03-22T09:29:07.961Z,18.77
2019-03-22T09:31:36.719Z,18.70
2019-03-22T09:34:05.445Z,18.50
2019-03-22T09:36:34.172Z,17.30
2019-03-22T09:39:03.963Z,15.83
2019-03-22T09:41:32.963Z,16.23
2019-03-22T09:44:01.895Z,16.90
2019-03-22T09:46:30.717Z,14.83
2019-03-22T09:48:59.398Z,15.37
2019-03-22T09:51:28.255Z,14.70
2019-03-22T09:53:57.001Z,13.13
2019-03-22T09:56:25.716Z,13.40
2019-03-22T09:58:54.366Z,11.13
2019-03-22T10:01:24.265Z,12.90
2019-03-22T10:03:53.592Z,13.87
2019-03-22T10:06:22.329Z,13.03
2019-03-22T10:08:51.174Z,11.93
2019-03-22T10:11:20.002Z,14.10
2019-03-22T10:13:48.830Z,12.83
2019-03-22T10:16:17.604Z,11.07
2019-03-22T10:18:46.339Z,13.20
2019-03-22T10:21:22.517Z,11.20
2019-03-22T10:23:45.523Z,11.87
2019-03-22T10:26:14.263Z,10.67
2019-03-22T10:28:42.943Z,11.10
2019-03-22T10:31:11.714Z,11.30
2019-03-22T10:33:40.427Z,10.67
2019-03-22T10:36:09.260Z,8.97
2019-03-22T10:38:38.085Z,10.20
2019-03-22T10:41:06.843Z,10.90
2019-03-22T10:43:35.599Z,9.43
2019-03-22T10:46:04.359Z,9.53
2019-03-22T10:48:33.089Z,10.43
2019-03-22T10:51:01.879Z,9.47
2019-03-22T10:53:30.631Z,8.10
2019-03-22T10:55:59.640Z,8.60
2019-03-22T10:58:28.273Z,7.70
2019-03-22T11:00:57.210Z,7.83
2019-03-22T11:03:25.949Z,7.73
2019-03-22T11:05:54.756Z,7.60
2019-03-22T11:08:23.335Z,7.83
2019-03-22T11:10:52.050Z,7.93
2019-03-22T11:13:20.743Z,7.57
2019-03-22T11:15:49.436Z,7.50
2019-03-22T11:18:18.384Z,7.63
2019-03-22T11:20:47.196Z,6.50
2019-03-22T11:23:15.930Z,5.40
2019-03-22T11:25:45.032Z,5.30
2019-03-22T11:28:13.843Z,4.60
2019-03-22T11:30:42.611Z,4.53
2019-03-22T11:33:11.316Z,4.80
2019-03-22T11:35:40.157Z,5.27
2019-03-22T11:38:08.833Z,4.93
2019-03-22T11:40:37.625Z,4.50
2019-03-22T11:43:08.963Z,4.47
2019-03-22T11:45:36.977Z,4.23
2019-03-22T11:48:05.678Z,5.73
2019-03-22T11:50:34.869Z,5.47
2019-03-22T11:53:03.770Z,4.80
2019-03-22T11:55:32.538Z,5.63
2019-03-22T11:58:01.328Z,4.90
2019-03-22T12:00:30.093Z,5.13
2019-03-22T12:02:58.962Z,4.63
2019-03-22T12:05:27.830Z,4.93
2019-03-22T12:07:56.596Z,6.20
2019-03-22T12:10:25.603Z,6.40
2019-03-22T12:12:58.585Z,5.80
2019-03-22T12:15:27.422Z,5.23
2019-03-22T12:17:56.262Z,5.40
2019-03-22T12:20:25.131Z,6.67
2019-03-22T12:22:53.889Z,5.80
2019-03-22T12:25:24.305Z,5.70
2019-03-22T12:27:53.138Z,5.97
2019-03-22T12:30:22.100Z,6.80
2019-03-22T12:32:50.895Z,7.00
2019-03-22T12:35:19.704Z,6.37
2019-03-22T12:37:48.565Z,6.57
2019-03-22T12:40:19.309Z,6.93
2019-03-22T12:42:48.294Z,7.37
2019-03-22T12:45:19.797Z,6.20
2019-03-22T12:47:48.651Z,6.70
2019-03-22T12:50:18.130Z,6.57
2019-03-22T12:52:46.884Z,6.10
2019-03-22T12:55:17.079Z,7.63
2019-03-22T12:57:45.824Z,6.20
2019-03-22T13:00:17.442Z,6.73
2019-03-22T13:02:46.419Z,6.40
2019-03-22T13:05:15.723Z,7.43
2019-03-22T13:07:44.465Z,7.03
2019-03-22T13:10:16.684Z,7.00
2019-03-22T13:12:45.496Z,6.17
2019-03-22T13:15:14.439Z,6.70
2019-03-22T13:17:43.152Z,7.43
2019-03-22T13:20:13.821Z,6.50
2019-03-22T13:22:42.569Z,5.40
2019-03-22T13:25:13.346Z,5.90
2019-03-22T13:27:42.274Z,5.73
2019-03-22T13:30:13.763Z,5.70
2019-03-22T13:32:51.839Z,6.60
2019-03-22T13:35:12.907Z,6.27
2019-03-22T13:37:41.583Z,6.93
2019-03-22T13:40:11.496Z,5.80
2019-03-22T13:42:40.345Z,5.70
2019-03-22T13:45:09.251Z,6.30
2019-03-22T13:47:38.008Z,6.37
2019-03-22T13:50:08.427Z,7.37
2019-03-22T13:52:37.158Z,6.37
2019-03-22T13:55:07.706Z,5.50
2019-03-22T13:57:37.029Z,6.90
2019-03-22T14:00:08.174Z,6.00
2019-03-22T14:02:36.902Z,5.97
2019-03-22T14:05:08.451Z,6.03
2019-03-22T14:07:37.226Z,5.67
2019-03-22T14:10:08.689Z,5.53
2019-03-22T14:12:37.535Z,5.70
2019-03-22T14:15:07.875Z,6.33
2019-03-22T14:17:36.663Z,6.20
2019-03-22T14:20:11.092Z,6.10
2019-03-22T14:22:37.267Z,6.10
2019-03-22T14:25:06.855Z,5.80
2019-03-22T14:27:35.671Z,5.27
2019-03-22T14:30:07.684Z,5.93
2019-03-22T14:32:36.786Z,6.20
2019-03-22T14:35:07.075Z,5.90
2019-03-22T14:37:35.885Z,5.10
2019-03-22T14:40:06.413Z,5.73
2019-03-22T14:42:35.206Z,5.43
2019-03-22T14:45:06.626Z,6.70
2019-03-22T14:47:35.394Z,6.90
2019-03-22T14:50:24.679Z,7.03
2019-03-22T14:52:53.595Z,5.90
2019-03-22T14:55:22.595Z,7.00
2019-03-22T14:57:52.458Z,6.70
2019-03-22T15:00:21.289Z,5.93
2019-03-22T15:02:51.771Z,8.47
2019-03-22T15:05:20.611Z,6.80
2019-03-22T15:07:49.373Z,7.40
2019-03-22T15:10:18.202Z,6.40
2019-03-22T15:12:47.176Z,5.90
2019-03-22T15:15:17.615Z,7.13
2019-03-22T15:17:47.988Z,6.73
2019-03-22T15:20:18.463Z,5.90
2019-03-22T15:22:48.819Z,7.70
2019-03-22T15:25:19.123Z,6.27
2019-03-22T15:27:47.905Z,6.80
2019-03-22T15:30:18.211Z,7.00
2019-03-22T15:32:48.101Z,6.57
2019-03-22T15:35:18.518Z,6.03
2019-03-22T15:37:49.006Z,6.13
2019-03-22T15:40:17.749Z,7.37
2019-03-22T15:42:46.476Z,24.57
2019-03-22T15:47:44.248Z,75.23
2019-03-22T15:50:14.985Z,38.13
2019-03-22T15:52:43.809Z,6.70
2019-03-22T15:55:12.916Z,6.07
2019-03-22T15:57:41.783Z,6.83
2019-03-22T16:00:13.492Z,6.07
2019-03-22T16:02:42.345Z,6.33
2019-03-22T16:05:11.451Z,6.40
2019-03-22T16:07:40.794Z,7.13
2019-03-22T16:10:11.378Z,6.97
2019-03-22T16:12:41.026Z,8.40
2019-03-22T16:15:16.044Z,8.40
2019-03-22T16:17:46.247Z,7.27
2019-03-22T16:20:16.257Z,9.10
2019-03-22T16:22:45.202Z,8.83
2019-03-22T16:25:14.483Z,9.00
2019-03-22T16:27:43.597Z,9.67
2019-03-22T16:30:15.243Z,9.30
2019-03-22T16:32:44.278Z,9.90
2019-03-22T16:35:13.315Z,9.30
2019-03-22T16:37:42.166Z,10.23
2019-03-22T16:40:12.109Z,9.70
2019-03-22T16:42:40.979Z,11.13
2019-03-22T16:45:11.391Z,9.00
2019-03-22T16:47:40.141Z,9.90
2019-03-22T16:50:11.699Z,9.60
2019-03-22T16:52:40.456Z,10.60
2019-03-22T16:55:11.672Z,10.43
2019-03-22T16:57:40.459Z,10.60
2019-03-22T17:00:10.808Z,10.30
2019-03-22T17:02:39.674Z,10.47
2019-03-22T17:05:08.544Z,24.57
2019-03-22T17:07:37.208Z,13.70
2019-03-22T17:10:07.051Z,12.20
2019-03-22T17:12:35.854Z,12.07
2019-03-22T17:15:06.427Z,12.43
2019-03-22T17:17:35.242Z,12.60
2019-03-22T17:20:06.247Z,11.53
2019-03-22T17:22:35.079Z,12.70
2019-03-22T17:25:05.068Z,11.30
2019-03-22T17:27:33.892Z,11.90
2019-03-22T17:30:03.042Z,10.63
2019-03-22T17:32:31.956Z,12.20
2019-03-22T17:35:00.871Z,10.53
2019-03-22T17:37:29.578Z,12.27
2019-03-22T17:39:58.455Z,11.37
2019-03-22T17:42:27.214Z,10.17
2019-03-22T17:44:56.213Z,11.90
2019-03-22T17:47:26.104Z,11.00
2019-03-22T17:49:55.643Z,13.07
2019-03-22T17:52:24.922Z,15.50
2019-03-22T17:54:53.701Z,12.40
2019-03-22T17:57:22.528Z,12.33
2019-03-22T17:59:51.289Z,13.07
2019-03-22T18:02:20.060Z,12.90
2019-03-22T18:04:48.955Z,13.93
2019-03-22T18:07:18.317Z,13.63
2019-03-22T18:09:47.158Z,14.67
2019-03-22T18:12:15.961Z,13.37
2019-03-22T18:14:44.783Z,21.23
2019-03-22T18:17:13.810Z,15.93
2019-03-22T18:19:42.616Z,14.00
2019-03-22T18:22:11.365Z,15.57
2019-03-22T18:24:40.274Z,14.90
2019-03-22T18:27:09.369Z,14.97
2019-03-22T18:29:38.157Z,14.97
2019-03-22T18:32:07.051Z,17.50
2019-03-22T18:34:37.525Z,15.50
2019-03-22T18:37:06.621Z,14.97
2019-03-22T18:39:35.457Z,16.53
2019-03-22T18:42:04.594Z,16.00
2019-03-22T18:44:33.565Z,17.10
2019-03-22T18:47:02.529Z,16.23
2019-03-22T18:49:31.482Z,17.50
2019-03-22T18:52:00.314Z,18.10
2019-03-22T18:54:29.219Z,18.90
2019-03-22T18:56:58.111Z,22.00
2019-03-22T18:59:26.942Z,18.70
2019-03-22T19:01:55.923Z,17.13
2019-03-22T19:04:24.785Z,17.00
2019-03-22T19:06:53.555Z,17.43
2019-03-22T19:09:22.492Z,16.63
2019-03-22T19:11:51.279Z,16.80
2019-03-22T19:14:20.051Z,37.07
2019-03-22T19:16:48.844Z,32.40
2019-03-22T19:19:17.517Z,23.77
2019-03-22T19:21:46.334Z,20.50
2019-03-22T19:24:15.186Z,19.33
2019-03-22T19:26:44.314Z,19.40
2019-03-22T19:29:13.163Z,15.00
2019-03-22T19:31:41.992Z,14.30
2019-03-22T19:34:10.906Z,12.60
2019-03-22T19:36:39.722Z,13.77
2019-03-22T19:39:08.557Z,12.90
2019-03-22T19:41:37.392Z,12.40
2019-03-22T19:44:06.310Z,12.53
2019-03-22T19:46:35.344Z,11.33
2019-03-22T19:49:04.079Z,11.10
2019-03-22T19:51:32.908Z,10.30
2019-03-22T19:54:01.696Z,10.07
2019-03-22T19:56:30.548Z,11.00
2019-03-22T19:58:59.231Z,11.43
2019-03-22T20:01:27.961Z,10.83
2019-03-22T20:03:56.713Z,13.50
2019-03-22T20:06:25.456Z,12.43
2019-03-22T20:08:54.215Z,12.00
2019-03-22T20:11:23.000Z,9.80
2019-03-22T20:13:52.323Z,11.13
2019-03-22T20:16:21.575Z,10.83
2019-03-22T20:18:50.698Z,10.20
2019-03-22T20:21:19.432Z,10.63
2019-03-22T20:23:53.557Z,10.07
2019-03-22T20:26:18.855Z,11.20
2019-03-22T20:28:47.718Z,9.37
2019-03-22T20:31:16.650Z,9.93
2019-03-22T20:33:45.513Z,10.77
2019-03-22T20:36:14.333Z,11.23
2019-03-22T20:38:43.083Z,9.90
2019-03-22T20:41:11.988Z,9.30
2019-03-22T20:43:40.759Z,7.87
2019-03-22T20:46:09.565Z,7.40
2019-03-22T20:48:38.411Z,8.20
2019-03-22T20:51:07.294Z,8.37
2019-03-22T20:53:37.128Z,8.47
2019-03-22T20:56:05.862Z,8.03
2019-03-22T20:58:34.686Z,7.77
2019-03-22T21:01:03.523Z,6.73
2019-03-22T21:03:32.190Z,6.63
2019-03-22T21:06:01.107Z,6.20
2019-03-22T21:08:29.989Z,6.77
2019-03-22T21:10:58.812Z,5.80
2019-03-22T21:13:27.598Z,5.60
2019-03-22T21:15:56.405Z,5.73
2019-03-22T21:18:25.441Z,5.60
2019-03-22T21:20:54.279Z,5.47
2019-03-22T21:23:22.938Z,5.83
2019-03-22T21:25:53.427Z,5.83
2019-03-22T21:28:22.345Z,7.03
2019-03-22T21:30:51.145Z,5.83
2019-03-22T21:33:19.811Z,4.40
2019-03-22T21:35:48.686Z,5.00
2019-03-22T21:38:17.487Z,4.50
2019-03-22T21:40:46.351Z,5.70
2019-03-22T21:43:15.268Z,5.37
2019-03-22T21:45:45.345Z,5.10
2019-03-22T21:48:14.874Z,5.50
2019-03-22T21:50:43.861Z,4.80
2019-03-22T21:53:12.777Z,5.47
2019-03-22T21:55:41.529Z,8.10
2019-03-22T21:58:10.426Z,5.23
2019-03-22T22:00:40.635Z,6.00
2019-03-22T22:03:10.087Z,6.50
2019-03-22T22:05:47.434Z,6.43
2019-03-22T22:08:09.467Z,6.40
2019-03-22T22:10:38.342Z,6.13
2019-03-22T22:13:07.176Z,6.90
2019-03-22T22:15:36.443Z,8.50
2019-03-22T22:18:05.255Z,7.20
2019-03-22T22:20:34.237Z,7.40
2019-03-22T22:23:03.357Z,8.43
2019-03-22T22:25:32.377Z,7.33
2019-03-22T22:28:02.124Z,7.73
2019-03-22T22:30:32.785Z,8.10
2019-03-22T22:33:01.913Z,10.00
2019-03-22T22:35:31.747Z,12.60
2019-03-22T22:38:00.562Z,20.77
2019-03-22T22:40:29.402Z,16.57
2019-03-22T22:42:58.140Z,12.20
2019-03-22T22:45:26.871Z,9.37
2019-03-22T22:47:55.640Z,10.63
2019-03-22T22:50:24.491Z,9.87
2019-03-22T22:52:53.218Z,8.80
2019-03-22T22:55:21.942Z,12.40
2019-03-22T22:57:50.626Z,20.90
2019-03-22T23:00:19.430Z,18.50
2019-03-22T23:02:48.175Z,16.37
2019-03-22T23:05:17.007Z,18.60
2019-03-22T23:07:45.830Z,16.97
2019-03-22T23:10:14.948Z,15.70
2019-03-22T23:12:44.256Z,18.37
2019-03-22T23:15:13.205Z,20.47
2019-03-22T23:17:41.983Z,16.77
2019-03-22T23:20:11.427Z,20.23
2019-03-22T23:22:40.248Z,17.73
2019-03-22T23:25:09.196Z,16.27
2019-03-22T23:27:38.032Z,16.67
2019-03-22T23:30:09.860Z,17.50
2019-03-22T23:32:38.626Z,18.53
2019-03-22T23:35:08.399Z,20.37
2019-03-22T23:37:37.168Z,19.60
2019-03-22T23:40:06.646Z,17.90
2019-03-22T23:42:35.514Z,18.70
2019-03-22T23:45:07.191Z,19.60
2019-03-22T23:47:35.952Z,18.10
2019-03-22T23:50:06.932Z,18.37
2019-03-22T23:52:35.671Z,21.37
2019-03-22T23:55:06.108Z,23.10
2019-03-22T23:57:34.916Z,20.40
